Alum Ridge, Virginia
Current Conditions -  °F | °C
As of 12:35 AM on Friday 28 Nov 2014 (Local Time) from KBCB Reporting Station
Light Snow Light Snow  
Wind Chill: -6°   Ceiling: 4700
Heat Index: -2°   Visibility: 10mi
Dew Point: -5°   Wind: 8mph
Humidity: 80%   Direction: 300°WNW
Pressure: 30.23"   Gusts: NA
Location:  36.9207°N, 80.3192°W
Report Text: KBCB 280535Z AUTO 30007KT 10SM -SN SCT029 SCT038 OVC047 M02/M05 A3023 RMK AO2
Loading
Personal Weather Stations






























Interactive Weather Map New forecast layout! Learn more

10-Day Weather Forecast

Advertisements
Track Severe Weather on mobile